createdAt,value
2022-12-12T00:01:49.809Z,-0.29
2022-12-12T00:04:22.009Z,-0.27
2022-12-12T00:06:54.150Z,-0.24
2022-12-12T00:09:26.286Z,-0.24
2022-12-12T00:11:58.451Z,-0.20
2022-12-12T00:14:31.259Z,-0.22
2022-12-12T00:17:03.505Z,-0.23
2022-12-12T00:19:36.109Z,-0.22
2022-12-12T00:22:08.634Z,-0.20
2022-12-12T00:24:40.747Z,-0.19
2022-12-12T00:27:12.920Z,-0.19
2022-12-12T00:29:45.114Z,-0.20
2022-12-12T00:32:17.285Z,-0.22
2022-12-12T00:34:49.810Z,-0.24
2022-12-12T00:37:21.927Z,-0.26
2022-12-12T00:39:54.199Z,-0.18
2022-12-12T00:42:27.405Z,-0.12
2022-12-12T00:45:00.248Z,-0.09
2022-12-12T00:47:32.498Z,-0.05
2022-12-12T00:50:04.995Z,0.00
2022-12-12T00:52:37.191Z,0.02
2022-12-12T00:55:12.938Z,0.00
2022-12-12T00:57:45.367Z,-0.03
2022-12-12T01:00:21.347Z,-0.03
2022-12-12T01:02:53.559Z,-0.04
2022-12-12T01:05:26.632Z,-0.03
2022-12-12T01:07:59.034Z,-0.03
2022-12-12T01:10:31.309Z,-0.06
2022-12-12T01:13:03.495Z,-0.09
2022-12-12T01:15:35.793Z,-0.09
2022-12-12T01:18:08.087Z,-0.08
2022-12-12T01:20:40.283Z,0.02
2022-12-12T01:23:12.475Z,0.06
2022-12-12T01:25:45.130Z,0.11
2022-12-12T01:28:17.703Z,0.15
2022-12-12T01:30:49.952Z,0.20
2022-12-12T01:33:22.172Z,0.24
2022-12-12T01:35:54.579Z,0.26
2022-12-12T01:38:27.174Z,0.26
2022-12-12T01:40:59.315Z,0.23
2022-12-12T01:43:32.200Z,0.19
2022-12-12T01:46:37.640Z,0.17
2022-12-12T01:49:17.858Z,0.17
2022-12-12T01:51:53.711Z,0.16
2022-12-12T01:54:29.169Z,0.17
2022-12-12T01:57:05.600Z,0.15
2022-12-12T01:59:40.331Z,0.13
2022-12-12T02:02:13.121Z,0.21
2022-12-12T02:04:46.095Z,0.25
2022-12-12T02:07:19.236Z,0.26
2022-12-12T02:09:52.227Z,0.29
2022-12-12T02:12:24.368Z,0.36
2022-12-12T02:14:56.973Z,0.41
2022-12-12T02:17:44.065Z,0.43
2022-12-12T02:20:58.162Z,0.45
2022-12-12T02:24:03.518Z,0.45
2022-12-12T02:27:02.613Z,0.41
2022-12-12T02:30:23.091Z,0.40
2022-12-12T02:33:22.189Z,0.37
2022-12-12T02:36:08.540Z,0.32
2022-12-12T02:38:52.510Z,0.29
2022-12-12T02:41:32.924Z,0.32
2022-12-12T02:44:15.327Z,0.41
2022-12-12T02:46:54.593Z,0.43
2022-12-12T02:49:30.521Z,0.46
2022-12-12T02:52:04.582Z,0.51
2022-12-12T02:54:36.778Z,0.54
2022-12-12T02:57:16.675Z,0.61
2022-12-12T02:59:53.248Z,0.66
2022-12-12T03:03:17.718Z,0.69
2022-12-12T03:06:21.042Z,0.73
2022-12-12T03:09:03.781Z,0.75
2022-12-12T03:11:49.416Z,0.76
2022-12-12T03:14:28.241Z,0.76
2022-12-12T03:17:10.266Z,0.73
2022-12-12T03:19:48.039Z,0.70
2022-12-12T03:22:29.124Z,0.70
2022-12-12T03:25:06.612Z,0.76
2022-12-12T03:27:43.540Z,0.75
2022-12-12T03:30:18.632Z,0.76
2022-12-12T03:32:57.297Z,0.79
2022-12-12T03:35:34.843Z,0.81
2022-12-12T03:38:13.205Z,0.85
2022-12-12T03:40:51.646Z,0.86
2022-12-12T03:43:27.245Z,0.86
2022-12-12T03:46:07.385Z,0.88
2022-12-12T03:48:44.128Z,0.93
2022-12-12T03:51:21.208Z,0.93
2022-12-12T03:54:00.623Z,0.91
2022-12-12T03:56:35.888Z,0.89
2022-12-12T03:59:11.971Z,0.88
2022-12-12T04:01:49.345Z,0.84
2022-12-12T04:04:28.881Z,0.85
2022-12-12T04:07:06.121Z,0.94
2022-12-12T04:09:56.281Z,0.98
2022-12-12T04:12:53.640Z,1.01
2022-12-12T04:15:52.201Z,1.04
2022-12-12T04:18:43.802Z,1.09
2022-12-12T04:21:49.377Z,1.13
2022-12-12T04:24:30.406Z,1.13
2022-12-12T04:27:06.270Z,1.11
2022-12-12T04:29:43.469Z,1.12
2022-12-12T04:32:21.331Z,1.10
2022-12-12T04:34:59.160Z,1.07
2022-12-12T04:37:33.902Z,1.03
2022-12-12T04:40:10.676Z,1.01
2022-12-12T04:42:47.531Z,0.99
2022-12-12T04:45:24.670Z,1.07
2022-12-12T04:47:59.573Z,1.08
2022-12-12T04:50:33.684Z,1.09
2022-12-12T04:53:14.926Z,1.10
2022-12-12T04:55:56.966Z,1.10
2022-12-12T04:58:29.493Z,1.12
2022-12-12T05:01:08.720Z,1.14
2022-12-12T05:03:48.344Z,1.12
2022-12-12T05:06:25.555Z,1.13
2022-12-12T05:08:58.852Z,1.12
2022-12-12T05:11:31.402Z,1.12
2022-12-12T05:14:03.878Z,1.12
2022-12-12T05:16:39.834Z,1.11
2022-12-12T05:19:11.980Z,1.10
2022-12-12T05:21:44.172Z,1.09
2022-12-12T05:24:16.373Z,1.17
2022-12-12T05:26:48.585Z,1.21
2022-12-12T05:29:20.778Z,1.24
2022-12-12T05:31:53.511Z,1.25
2022-12-12T05:34:25.940Z,1.28
2022-12-12T05:36:58.154Z,1.29
2022-12-12T05:39:30.323Z,1.27
2022-12-12T05:42:02.541Z,1.27
2022-12-12T05:44:34.741Z,1.27
2022-12-12T05:47:07.347Z,1.26
2022-12-12T05:49:39.533Z,1.22
2022-12-12T05:52:11.906Z,1.15
2022-12-12T05:54:43.936Z,1.10
2022-12-12T05:57:17.367Z,1.04
2022-12-12T05:59:49.714Z,1.03
2022-12-12T06:02:22.029Z,1.10
2022-12-12T06:04:54.335Z,1.10
2022-12-12T06:07:26.528Z,1.11
2022-12-12T06:09:58.798Z,1.14
2022-12-12T06:12:31.042Z,1.16
2022-12-12T06:15:03.805Z,1.19
2022-12-12T06:17:36.173Z,1.18
2022-12-12T06:20:11.587Z,1.16
2022-12-12T06:22:45.190Z,1.14
2022-12-12T06:25:19.341Z,1.12
2022-12-12T06:27:51.822Z,1.09
2022-12-12T06:30:24.156Z,1.04
2022-12-12T06:32:56.504Z,0.98
2022-12-12T06:35:28.698Z,0.94
2022-12-12T06:38:00.814Z,0.99
2022-12-12T06:40:33.206Z,1.01
2022-12-12T06:43:05.583Z,1.02
2022-12-12T06:45:37.896Z,1.07
2022-12-12T06:48:10.560Z,1.11
2022-12-12T06:50:44.088Z,1.14
2022-12-12T06:53:16.843Z,1.14
2022-12-12T06:55:49.267Z,1.15
2022-12-12T06:58:21.691Z,1.16
2022-12-12T07:00:55.525Z,1.20
2022-12-12T07:03:27.931Z,1.26
2022-12-12T07:06:00.460Z,1.30
2022-12-12T07:08:33.028Z,1.34
2022-12-12T07:11:08.934Z,1.39
2022-12-12T07:13:41.614Z,1.42
2022-12-12T07:16:14.019Z,1.44
2022-12-12T07:18:46.667Z,1.46
2022-12-12T07:21:21.344Z,1.47
2022-12-12T07:23:53.793Z,1.51
2022-12-12T07:26:26.805Z,1.55
2022-12-12T07:28:59.211Z,1.58
2022-12-12T07:31:31.570Z,1.61
2022-12-12T07:34:04.106Z,1.64
2022-12-12T07:36:36.557Z,1.65
2022-12-12T07:39:08.928Z,1.65
2022-12-12T07:41:41.332Z,1.65
2022-12-12T07:44:13.699Z,1.66
2022-12-12T07:46:46.045Z,1.69
2022-12-12T07:49:18.495Z,1.71
2022-12-12T07:51:50.950Z,1.71
2022-12-12T07:54:23.519Z,1.74
2022-12-12T07:56:56.002Z,1.75
2022-12-12T08:00:03.771Z,1.75
2022-12-12T08:02:44.522Z,1.76
2022-12-12T08:05:17.642Z,1.79
2022-12-12T08:07:50.405Z,1.81
2022-12-12T08:10:22.913Z,1.83
2022-12-12T08:12:55.477Z,1.84
2022-12-12T08:15:28.003Z,1.86
2022-12-12T08:18:00.323Z,1.89
2022-12-12T08:20:32.720Z,1.91
2022-12-12T08:23:05.171Z,1.94
2022-12-12T08:25:38.672Z,1.96
2022-12-12T08:28:11.709Z,2.01
2022-12-12T08:30:43.965Z,2.04
2022-12-12T08:33:16.326Z,2.06
2022-12-12T08:35:48.915Z,2.04
2022-12-12T08:38:21.558Z,2.04
2022-12-12T08:40:53.961Z,2.05
2022-12-12T08:43:26.285Z,2.05
2022-12-12T08:46:03.937Z,1.98
2022-12-12T08:48:36.606Z,1.91
2022-12-12T08:51:09.311Z,1.87
2022-12-12T08:53:41.709Z,1.84
2022-12-12T08:56:14.364Z,1.80
2022-12-12T08:58:47.557Z,1.82
2022-12-12T09:01:21.648Z,1.80
2022-12-12T09:03:55.927Z,1.80
2022-12-12T09:06:29.107Z,1.80
2022-12-12T09:09:01.350Z,1.78
2022-12-12T09:11:33.674Z,1.77
2022-12-12T09:14:06.071Z,1.75
2022-12-12T09:16:38.382Z,1.75
2022-12-12T09:19:11.046Z,1.78
2022-12-12T09:21:43.523Z,1.78
2022-12-12T09:24:15.977Z,1.77
2022-12-12T09:26:48.398Z,1.78
2022-12-12T09:29:20.847Z,1.77
2022-12-12T09:31:53.291Z,1.80
2022-12-12T09:34:25.746Z,1.81
2022-12-12T09:36:58.171Z,1.81
2022-12-12T09:39:30.987Z,1.80
2022-12-12T09:42:12.267Z,1.81
2022-12-12T09:44:44.842Z,1.82
2022-12-12T09:47:26.821Z,1.85
2022-12-12T09:50:05.074Z,1.85
2022-12-12T09:52:39.139Z,1.82
2022-12-12T09:55:27.973Z,1.79
2022-12-12T09:58:05.192Z,1.77
2022-12-12T10:00:47.344Z,1.75
2022-12-12T10:03:31.176Z,1.75
2022-12-12T10:09:17.420Z,1.76
2022-12-12T10:11:51.316Z,1.77
2022-12-12T10:14:34.589Z,1.76
2022-12-12T10:17:12.868Z,1.76
2022-12-12T10:19:51.003Z,1.76
2022-12-12T10:22:31.386Z,1.82
2022-12-12T10:25:09.826Z,1.87
2022-12-12T10:27:42.201Z,1.91
2022-12-12T10:30:20.557Z,1.93
2022-12-12T10:33:09.346Z,1.95
2022-12-12T10:35:52.675Z,1.98
2022-12-12T10:38:42.738Z,1.98
2022-12-12T10:41:27.553Z,1.98
2022-12-12T10:44:10.732Z,1.99
2022-12-12T10:46:48.921Z,2.00
2022-12-12T10:49:25.075Z,1.98
2022-12-12T10:52:01.699Z,1.97
2022-12-12T10:54:43.288Z,1.96
2022-12-12T10:57:21.994Z,1.98
2022-12-12T10:59:56.536Z,1.99
2022-12-12T11:02:41.292Z,1.98
2022-12-12T11:05:21.990Z,1.97
2022-12-12T11:08:04.978Z,2.01
2022-12-12T11:10:39.165Z,2.02
2022-12-12T11:13:18.847Z,2.04
2022-12-12T11:15:58.813Z,2.07
2022-12-12T11:18:33.294Z,2.08
2022-12-12T11:21:11.940Z,2.08
2022-12-12T11:23:51.945Z,2.08
2022-12-12T11:26:25.575Z,2.08
2022-12-12T11:29:03.218Z,2.11
2022-12-12T11:31:37.096Z,2.10
2022-12-12T11:34:15.029Z,2.07
2022-12-12T11:36:47.836Z,2.08
2022-12-12T11:39:28.580Z,2.11
2022-12-12T11:42:03.297Z,2.14
2022-12-12T11:44:38.115Z,2.18
2022-12-12T11:47:25.105Z,2.17
2022-12-12T11:49:59.499Z,2.18
2022-12-12T11:52:33.923Z,2.21
2022-12-12T11:55:14.413Z,2.24
2022-12-12T11:58:04.073Z,2.27
2022-12-12T12:00:46.496Z,2.32
2022-12-12T12:03:45.035Z,2.32
2022-12-12T12:06:34.634Z,2.31
2022-12-12T12:09:23.828Z,2.30
2022-12-12T12:12:05.903Z,2.28
2022-12-12T12:15:00.124Z,2.31
2022-12-12T12:17:46.234Z,2.32
2022-12-12T12:20:25.752Z,2.34
2022-12-12T12:23:05.035Z,2.36
2022-12-12T12:25:50.489Z,2.38
2022-12-12T12:28:40.860Z,2.37
2022-12-12T12:31:18.067Z,2.40
2022-12-12T12:34:05.191Z,2.44
2022-12-12T12:36:49.032Z,2.45
2022-12-12T12:39:41.934Z,2.44
2022-12-12T12:42:29.722Z,2.45
2022-12-12T12:45:08.620Z,2.46
2022-12-12T12:47:49.241Z,2.47
2022-12-12T12:50:24.634Z,2.47
2022-12-12T12:53:01.638Z,2.46
2022-12-12T12:55:41.128Z,2.45
2022-12-12T12:58:19.849Z,2.43
2022-12-12T13:01:00.849Z,2.41
2022-12-12T13:03:42.206Z,2.39
2022-12-12T13:06:19.807Z,2.37
2022-12-12T13:08:59.703Z,2.36
2022-12-12T13:11:36.743Z,2.36
2022-12-12T13:14:21.646Z,2.39
2022-12-12T13:16:56.560Z,2.43
2022-12-12T13:19:38.227Z,2.43
2022-12-12T13:22:17.673Z,2.42
2022-12-12T13:24:59.846Z,2.44
2022-12-12T13:27:45.811Z,2.47
2022-12-12T13:30:23.325Z,2.48
2022-12-12T13:33:33.573Z,2.46
2022-12-12T13:36:14.252Z,2.49
2022-12-12T13:38:52.825Z,2.45
2022-12-12T13:41:26.093Z,2.40
2022-12-12T13:44:01.157Z,2.38
2022-12-12T13:46:42.265Z,2.35
2022-12-12T13:49:22.952Z,2.31
2022-12-12T13:52:15.573Z,2.27
2022-12-12T13:54:49.412Z,2.24
2022-12-12T13:57:38.957Z,2.24
2022-12-12T14:00:21.877Z,2.25
2022-12-12T14:03:07.262Z,2.27
2022-12-12T14:05:42.609Z,2.27
2022-12-12T14:08:27.049Z,2.27
2022-12-12T14:11:03.270Z,2.26
2022-12-12T14:13:43.153Z,2.24
2022-12-12T14:16:27.034Z,2.22
2022-12-12T14:19:07.138Z,2.21
2022-12-12T14:21:48.691Z,2.20
2022-12-12T14:24:48.377Z,2.22
2022-12-12T14:27:41.090Z,2.25
2022-12-12T14:30:19.635Z,2.30
2022-12-12T14:32:59.277Z,2.38
2022-12-12T14:35:39.816Z,2.45
2022-12-12T14:38:27.926Z,2.48
2022-12-12T14:41:04.235Z,2.51
2022-12-12T14:43:41.883Z,2.54
2022-12-12T14:46:18.699Z,2.57
2022-12-12T14:49:02.905Z,2.58
2022-12-12T14:51:37.266Z,2.56
2022-12-12T14:54:17.885Z,2.54
2022-12-12T14:56:53.221Z,2.52
2022-12-12T14:59:30.011Z,2.53
2022-12-12T15:02:07.828Z,2.54
2022-12-12T15:04:42.122Z,2.57
2022-12-12T15:07:26.043Z,2.57
2022-12-12T15:09:58.796Z,2.57
2022-12-12T15:12:36.760Z,2.55
2022-12-12T15:15:27.709Z,2.53
2022-12-12T15:18:02.159Z,2.50
2022-12-12T15:20:36.577Z,2.48
2022-12-12T15:23:09.694Z,2.47
2022-12-12T15:25:45.062Z,2.46
2022-12-12T15:28:20.583Z,2.47
2022-12-12T15:30:55.468Z,2.47
2022-12-12T15:33:29.146Z,2.48
2022-12-12T15:36:05.066Z,2.49
2022-12-12T15:38:37.608Z,2.50
2022-12-12T15:41:13.745Z,2.50
2022-12-12T15:43:47.006Z,2.52
2022-12-12T15:46:20.101Z,2.54
2022-12-12T15:48:52.597Z,2.54
2022-12-12T15:51:29.529Z,2.54
2022-12-12T15:54:08.786Z,2.57
2022-12-12T15:56:41.084Z,2.60
2022-12-12T15:59:28.075Z,2.61
2022-12-12T16:02:13.852Z,2.61
2022-12-12T16:04:56.900Z,2.60
2022-12-12T16:07:30.127Z,2.59
2022-12-12T16:10:05.470Z,2.59
2022-12-12T16:13:03.265Z,2.59
2022-12-12T16:15:38.326Z,2.55
2022-12-12T16:18:21.098Z,2.52
2022-12-12T16:20:56.392Z,2.52
2022-12-12T16:23:30.759Z,2.51
2022-12-12T16:26:03.103Z,2.51
2022-12-12T16:28:35.448Z,2.48
2022-12-12T16:31:15.083Z,2.48
2022-12-12T16:33:47.645Z,2.51
2022-12-12T16:36:20.042Z,2.56
2022-12-12T16:38:52.980Z,2.58
2022-12-12T16:41:25.425Z,2.60
2022-12-12T16:43:58.009Z,2.61
2022-12-12T16:46:30.354Z,2.62
2022-12-12T16:49:04.850Z,2.64
2022-12-12T16:51:41.065Z,2.65
2022-12-12T16:54:18.280Z,2.66
2022-12-12T16:56:52.779Z,2.67
2022-12-12T16:59:25.437Z,2.67
2022-12-12T17:01:57.879Z,2.68
2022-12-12T17:04:31.904Z,2.68
2022-12-12T17:07:08.091Z,2.65
2022-12-12T17:09:40.524Z,2.63
2022-12-12T17:12:13.538Z,2.60
2022-12-12T17:14:45.887Z,2.58
2022-12-12T17:17:18.389Z,2.56
2022-12-12T17:19:50.709Z,2.55
2022-12-12T17:22:23.237Z,2.50
2022-12-12T17:24:55.917Z,2.50
2022-12-12T17:27:28.267Z,2.47
2022-12-12T17:30:00.648Z,2.39
2022-12-12T17:32:33.087Z,2.34
2022-12-12T17:35:07.918Z,2.33
2022-12-12T17:37:40.445Z,2.29
2022-12-12T17:40:14.628Z,2.20
2022-12-12T17:42:47.162Z,2.12
2022-12-12T17:45:19.615Z,2.03
2022-12-12T17:47:52.471Z,1.97
2022-12-12T17:50:24.869Z,1.93
2022-12-12T17:52:57.230Z,1.91
2022-12-12T17:55:54.170Z,1.86
2022-12-12T17:58:27.980Z,1.83
2022-12-12T18:01:01.980Z,1.83
2022-12-12T18:03:35.464Z,1.80
2022-12-12T18:06:08.493Z,1.81
2022-12-12T18:08:42.330Z,1.84
2022-12-12T18:11:16.191Z,1.90
2022-12-12T18:13:49.736Z,1.94
2022-12-12T18:16:23.840Z,1.96
2022-12-12T18:18:57.532Z,1.97
2022-12-12T18:24:29.494Z,1.97
2022-12-12T18:27:03.643Z,1.99
2022-12-12T18:29:36.026Z,1.99
2022-12-12T18:32:08.605Z,1.95
2022-12-12T18:34:42.363Z,1.91
2022-12-12T18:37:15.113Z,1.85
2022-12-12T18:39:47.529Z,1.83
2022-12-12T18:42:19.941Z,1.79
2022-12-12T18:44:52.266Z,1.81
2022-12-12T18:47:24.612Z,1.80
2022-12-12T18:49:56.844Z,1.80
2022-12-12T18:52:29.171Z,1.81
2022-12-12T18:55:02.010Z,1.82
2022-12-12T18:57:34.715Z,1.81
2022-12-12T19:00:09.008Z,1.75
2022-12-12T19:02:41.460Z,1.71
2022-12-12T19:05:14.578Z,1.68
2022-12-12T19:07:48.064Z,1.64
2022-12-12T19:10:20.832Z,1.59
2022-12-12T19:12:53.254Z,1.57
2022-12-12T19:15:25.552Z,1.55
2022-12-12T19:17:59.106Z,1.55
2022-12-12T19:20:31.476Z,1.50
2022-12-12T19:23:04.080Z,1.47
2022-12-12T19:25:42.560Z,1.44
2022-12-12T19:28:15.661Z,1.45
2022-12-12T19:30:47.971Z,1.46
2022-12-12T19:33:20.674Z,1.44
2022-12-12T19:35:53.136Z,1.44
2022-12-12T19:38:25.638Z,1.43
2022-12-12T19:40:58.070Z,1.40
2022-12-12T19:43:33.007Z,1.43
2022-12-12T19:46:08.269Z,1.47
2022-12-12T19:48:41.043Z,1.49
2022-12-12T19:51:15.311Z,1.50
2022-12-12T19:53:50.103Z,1.53
2022-12-12T19:56:24.028Z,1.55
2022-12-12T19:58:58.677Z,1.56
2022-12-12T20:01:33.071Z,1.56
2022-12-12T20:04:07.723Z,1.58
2022-12-12T20:06:45.397Z,1.60
2022-12-12T20:09:21.125Z,1.65
2022-12-12T20:11:54.088Z,1.66
2022-12-12T20:14:29.043Z,1.66
2022-12-12T20:17:03.056Z,1.65
2022-12-12T20:19:35.380Z,1.63
2022-12-12T20:22:07.830Z,1.60
2022-12-12T20:24:40.827Z,1.58
2022-12-12T20:27:15.337Z,1.58
2022-12-12T20:29:47.915Z,1.59
2022-12-12T20:32:23.417Z,1.62
2022-12-12T20:34:56.015Z,1.65
2022-12-12T20:37:30.692Z,1.69
2022-12-12T20:40:03.219Z,1.69
2022-12-12T20:42:35.592Z,1.69
2022-12-12T20:45:09.599Z,1.70
2022-12-12T20:47:42.026Z,1.70
2022-12-12T20:50:14.788Z,1.73
2022-12-12T20:52:47.775Z,1.73
2022-12-12T20:55:20.176Z,1.73
2022-12-12T20:57:52.518Z,1.70
2022-12-12T21:00:26.683Z,1.67
2022-12-12T21:02:59.305Z,1.67
2022-12-12T21:05:32.927Z,1.67
2022-12-12T21:08:05.418Z,1.69
2022-12-12T21:10:37.840Z,1.68
2022-12-12T21:13:10.148Z,1.64
2022-12-12T21:15:42.791Z,1.61
2022-12-12T21:18:15.367Z,1.58
2022-12-12T21:20:48.098Z,1.57
2022-12-12T21:23:21.034Z,1.55
2022-12-12T21:25:54.772Z,1.51
2022-12-12T21:28:27.086Z,1.46
2022-12-12T21:30:59.745Z,1.44
2022-12-12T21:33:32.422Z,1.43
2022-12-12T21:36:07.738Z,1.42
2022-12-12T21:38:41.341Z,1.43
2022-12-12T21:41:15.787Z,1.42
2022-12-12T21:43:48.828Z,1.39
2022-12-12T21:46:23.019Z,1.38
2022-12-12T21:49:09.702Z,1.40
2022-12-12T21:51:42.738Z,1.40
2022-12-12T21:54:16.140Z,1.40
2022-12-12T21:56:48.638Z,1.40
2022-12-12T21:59:20.988Z,1.36
2022-12-12T22:01:55.120Z,1.31
2022-12-12T22:04:28.008Z,1.28
2022-12-12T22:07:00.867Z,1.27
2022-12-12T22:09:33.306Z,1.30
2022-12-12T22:12:05.795Z,1.30
2022-12-12T22:14:38.192Z,1.30
2022-12-12T22:17:10.490Z,1.28
2022-12-12T22:19:42.760Z,1.31
2022-12-12T22:22:15.057Z,1.36
2022-12-12T22:24:47.455Z,1.39
2022-12-12T22:27:19.853Z,1.39
2022-12-12T22:29:52.211Z,1.37
2022-12-12T22:32:24.602Z,1.35
2022-12-12T22:34:58.430Z,1.37
2022-12-12T22:37:31.471Z,1.35
2022-12-12T22:40:04.129Z,1.33
2022-12-12T22:42:36.586Z,1.28
2022-12-12T22:45:12.653Z,1.24
2022-12-12T22:47:45.288Z,1.19
2022-12-12T22:50:17.815Z,1.16
2022-12-12T22:52:50.350Z,1.14
2022-12-12T22:55:23.124Z,1.15
2022-12-12T22:57:55.445Z,1.17
2022-12-12T23:00:28.459Z,1.19
2022-12-12T23:03:01.189Z,1.20
2022-12-12T23:05:33.820Z,1.15
2022-12-12T23:08:07.135Z,1.09
2022-12-12T23:10:39.538Z,1.03
2022-12-12T23:13:12.043Z,1.00
2022-12-12T23:15:44.590Z,0.95
2022-12-12T23:18:18.423Z,0.91
2022-12-12T23:20:50.846Z,0.87
2022-12-12T23:23:23.709Z,0.83
2022-12-12T23:25:56.181Z,0.80
2022-12-12T23:28:29.248Z,0.79
2022-12-12T23:31:01.877Z,0.79
2022-12-12T23:33:34.197Z,0.77
2022-12-12T23:36:08.501Z,0.77
2022-12-12T23:38:41.273Z,0.78
2022-12-12T23:41:15.835Z,0.80
2022-12-12T23:43:48.478Z,0.81
2022-12-12T23:46:32.069Z,0.79
2022-12-12T23:49:06.106Z,0.77
2022-12-12T23:51:41.208Z,0.77
2022-12-12T23:54:16.068Z,0.77
2022-12-12T23:56:49.263Z,0.76
2022-12-12T23:59:22.455Z,0.74
